Time;durP1;ratioP1;P1;durP2;ratioP2;P2;SDS_P1;SDS_P2;PMS_P1;PMS_P2;Temp;Humidity;BMP_temperature;BMP_pressure;BME280_temperature;BME280_humidity;BME280_pressure;Samples;Min_cycle;Max_cycle;Signal;HPM_P1;HPM_P2
2022/02/16 00:02:21;;;;;;;;;;;16.50;34.90;;;;;;8335849;28;20448;-50
2022/02/16 00:06:21;;;;;;;;;;;16.50;34.80;;;;;;8335370;28;20055;-52
2022/02/16 00:10:22;;;;;;;;;;;16.40;34.80;;;;;;8335137;28;20306;-54
2022/02/16 00:14:22;;;;;;;;;;;16.50;34.80;;;;;;8335149;28;20504;-51
2022/02/16 00:18:23;;;;;;;;;;;16.50;34.80;;;;;;8335309;28;19925;-53
2022/02/16 00:22:23;;;;;;;;;;;16.40;34.80;;;;;;8334515;28;19964;-49
2022/02/16 00:26:24;;;;;;;;;;;16.40;34.80;;;;;;8335211;28;19925;-51
2022/02/16 00:30:25;;;;;;;;;;;16.40;34.80;;;;;;8334912;28;19917;-51
2022/02/16 00:34:25;;;;;;;;;;;16.40;34.80;;;;;;8334149;28;19924;-54
2022/02/16 00:38:26;;;;;;;;;;;16.40;34.80;;;;;;8334561;28;19971;-53
2022/02/16 00:42:26;;;;;;;;;;;16.40;34.80;;;;;;8334366;28;19925;-51
2022/02/16 00:46:26;;;;;;;;;;;16.40;34.80;;;;;;8333809;28;19917;-52
2022/02/16 00:50:27;;;;;;;;;;;16.40;34.80;;;;;;8333792;28;19917;-53
2022/02/16 00:54:28;;;;;;;;;;;16.40;34.80;;;;;;8334212;28;19928;-58
2022/02/16 00:58:29;;;;;;;;;;;16.40;34.80;;;;;;8333409;28;19956;-52
2022/02/16 01:02:29;;;;;;;;;;;16.40;34.80;;;;;;8333764;28;19925;-51
2022/02/16 01:06:29;;;;;;;;;;;16.40;34.80;;;;;;8333685;28;19924;-55
2022/02/16 01:10:30;;;;;;;;;;;16.30;34.70;;;;;;8333401;28;19913;-53
2022/02/16 01:14:31;;;;;;;;;;;16.40;34.80;;;;;;8333536;28;19925;-54
2022/02/16 01:18:31;;;;;;;;;;;16.40;34.80;;;;;;8333229;28;19924;-52
2022/02/16 01:22:32;;;;;;;;;;;16.30;34.80;;;;;;8332623;28;19953;-55
2022/02/16 01:26:32;;;;;;;;;;;16.30;34.80;;;;;;8333320;28;20339;-54
2022/02/16 01:30:33;;;;;;;;;;;16.30;34.80;;;;;;8333132;28;20447;-53
2022/02/16 01:34:33;;;;;;;;;;;16.30;34.80;;;;;;8332368;28;20404;-54
2022/02/16 01:38:35;;;;;;;;;;;16.30;34.80;;;;;;8332534;28;19917;-53
2022/02/16 01:42:35;;;;;;;;;;;16.30;34.90;;;;;;8332645;28;20059;-53
2022/02/16 01:46:49;;;;;;;;;;;16.30;34.90;;;;;;8331984;28;19921;-51
2022/02/16 01:50:50;;;;;;;;;;;16.30;34.90;;;;;;8336212;28;19923;-54
2022/02/16 01:54:50;;;;;;;;;;;16.30;34.80;;;;;;8332088;28;20020;-54
2022/02/16 01:58:50;;;;;;;;;;;16.30;34.90;;;;;;8331457;28;20004;-52
2022/02/16 02:02:51;;;;;;;;;;;16.30;34.90;;;;;;8338554;28;19917;-52
2022/02/16 02:06:51;;;;;;;;;;;16.30;34.90;;;;;;8331413;28;19925;-54
2022/02/16 02:10:53;;;;;;;;;;;16.30;34.90;;;;;;8331480;28;20381;-53
2022/02/16 02:14:54;;;;;;;;;;;16.30;34.90;;;;;;8331709;28;19927;-51
2022/02/16 02:18:55;;;;;;;;;;;16.30;34.90;;;;;;8331336;28;19925;-51
2022/02/16 02:22:56;;;;;;;;;;;16.30;34.90;;;;;;8330821;28;20377;-53
2022/02/16 02:26:56;;;;;;;;;;;16.30;34.90;;;;;;8331512;28;20271;-54
2022/02/16 02:30:57;;;;;;;;;;;16.30;34.90;;;;;;8331527;28;19917;-54
2022/02/16 02:34:57;;;;;;;;;;;16.30;34.90;;;;;;8330521;28;19917;-51
2022/02/16 02:38:58;;;;;;;;;;;16.20;34.90;;;;;;8330679;28;19956;-53
2022/02/16 02:42:58;;;;;;;;;;;16.30;34.90;;;;;;8330935;28;19917;-55
2022/02/16 02:46:59;;;;;;;;;;;16.30;34.90;;;;;;8330324;28;19980;-52
2022/02/16 02:50:59;;;;;;;;;;;16.30;34.90;;;;;;8331042;28;19917;-53
2022/02/16 02:55:00;;;;;;;;;;;16.30;34.90;;;;;;8330559;28;19928;-53
2022/02/16 02:59:00;;;;;;;;;;;16.20;34.90;;;;;;8329857;28;19967;-51
2022/02/16 03:03:00;;;;;;;;;;;16.20;34.90;;;;;;8330602;28;19925;-52
2022/02/16 03:07:01;;;;;;;;;;;16.20;34.90;;;;;;8330229;28;19950;-55
2022/02/16 03:11:01;;;;;;;;;;;16.20;34.90;;;;;;8330015;28;19921;-55
2022/02/16 03:15:02;;;;;;;;;;;16.20;34.90;;;;;;8329775;28;19917;-55
2022/02/16 03:19:03;;;;;;;;;;;16.20;34.90;;;;;;8330059;28;20270;-55
2022/02/16 03:23:03;;;;;;;;;;;16.20;35.00;;;;;;8329700;28;19928;-54
2022/02/16 03:27:03;;;;;;;;;;;16.20;35.00;;;;;;8329945;28;19928;-52
2022/02/16 03:31:04;;;;;;;;;;;16.20;34.90;;;;;;8330063;28;19952;-54
2022/02/16 03:35:05;;;;;;;;;;;16.20;35.00;;;;;;8329306;28;19917;-54
2022/02/16 03:39:05;;;;;;;;;;;16.20;35.00;;;;;;8329707;28;20302;-53
2022/02/16 03:43:06;;;;;;;;;;;16.20;35.00;;;;;;8329685;28;20404;-52
2022/02/16 03:47:06;;;;;;;;;;;16.20;35.00;;;;;;8329139;28;19924;-55
2022/02/16 03:51:07;;;;;;;;;;;16.20;35.00;;;;;;8328495;28;19971;-53
2022/02/16 03:55:08;;;;;;;;;;;16.20;35.00;;;;;;8329495;28;19956;-55
2022/02/16 03:59:08;;;;;;;;;;;16.20;35.00;;;;;;8328924;28;19925;-54
2022/02/16 04:03:09;;;;;;;;;;;16.10;34.90;;;;;;8329491;28;19920;-52
2022/02/16 04:07:09;;;;;;;;;;;16.10;34.90;;;;;;8329660;28;19925;-52
2022/02/16 04:11:10;;;;;;;;;;;16.10;35.00;;;;;;8328840;28;19962;-52
2022/02/16 04:15:10;;;;;;;;;;;16.10;35.00;;;;;;8329463;28;19926;-54
2022/02/16 04:19:11;;;;;;;;;;;16.10;35.00;;;;;;8329219;28;20449;-52
2022/02/16 04:23:13;;;;;;;;;;;16.10;35.00;;;;;;8327377;28;19917;-51
2022/02/16 04:27:13;;;;;;;;;;;16.10;35.00;;;;;;8333465;28;20001;-51
2022/02/16 04:31:13;;;;;;;;;;;16.10;35.10;;;;;;8334852;28;20290;-51
2022/02/16 04:35:14;;;;;;;;;;;16.10;35.10;;;;;;8334003;28;19923;-53
2022/02/16 04:39:16;;;;;;;;;;;16.10;35.10;;;;;;8334374;28;19952;-50
2022/02/16 04:43:16;;;;;;;;;;;16.10;35.10;;;;;;8334165;28;19924;-54
2022/02/16 04:47:17;;;;;;;;;;;16.10;35.00;;;;;;8334836;28;19924;-55
2022/02/16 04:51:17;;;;;;;;;;;16.10;35.10;;;;;;8334095;28;19918;-53
2022/02/16 04:55:18;;;;;;;;;;;16.10;35.10;;;;;;8333687;28;19928;-52
2022/02/16 04:59:18;;;;;;;;;;;16.10;35.10;;;;;;8334081;28;19924;-52
2022/02/16 05:03:20;;;;;;;;;;;16.10;35.10;;;;;;8328365;28;19925;-52
2022/02/16 05:07:21;;;;;;;;;;;16.10;35.10;;;;;;8333552;28;19917;-54
2022/02/16 05:11:21;;;;;;;;;;;16.10;35.10;;;;;;8333742;28;20370;-54
2022/02/16 05:15:22;;;;;;;;;;;16.10;35.10;;;;;;8333490;28;19917;-56
2022/02/16 05:19:22;;;;;;;;;;;16.10;35.20;;;;;;8333051;28;19932;-55
2022/02/16 05:23:23;;;;;;;;;;;16.10;35.10;;;;;;8333312;28;20370;-54
2022/02/16 05:27:23;;;;;;;;;;;16.10;35.20;;;;;;8332189;28;20313;-52
2022/02/16 05:31:24;;;;;;;;;;;16.10;35.20;;;;;;8332454;28;20389;-51
2022/02/16 05:35:24;;;;;;;;;;;16.10;35.20;;;;;;8332764;28;19971;-54
2022/02/16 05:39:25;;;;;;;;;;;16.10;35.20;;;;;;8332710;28;19933;-51
2022/02/16 05:43:25;;;;;;;;;;;16.10;35.20;;;;;;8331979;28;20458;-51
2022/02/16 05:47:26;;;;;;;;;;;16.10;35.20;;;;;;8332888;28;19917;-52
2022/02/16 05:51:26;;;;;;;;;;;16.10;35.20;;;;;;8332453;28;20003;-51
2022/02/16 05:55:26;;;;;;;;;;;16.10;35.20;;;;;;8331718;28;19921;-53
2022/02/16 05:59:27;;;;;;;;;;;16.10;35.30;;;;;;8331953;28;20285;-52
2022/02/16 06:03:27;;;;;;;;;;;16.10;35.20;;;;;;8332137;28;19936;-52
2022/02/16 06:07:28;;;;;;;;;;;16.10;35.20;;;;;;8331810;28;19996;-52
2022/02/16 06:11:28;;;;;;;;;;;16.10;35.20;;;;;;8332167;28;19921;-55
2022/02/16 06:15:29;;;;;;;;;;;16.10;35.20;;;;;;8332058;28;19917;-52
2022/02/16 06:19:29;;;;;;;;;;;16.10;35.30;;;;;;8330947;28;19964;-54
2022/02/16 06:23:30;;;;;;;;;;;16.10;35.30;;;;;;8331575;28;19921;-54
2022/02/16 06:27:31;;;;;;;;;;;16.10;35.30;;;;;;8331750;28;19917;-52
2022/02/16 06:31:31;;;;;;;;;;;16.10;35.90;;;;;;8330775;28;20051;-51
2022/02/16 06:35:32;;;;;;;;;;;16.10;35.40;;;;;;8330962;28;19971;-53
2022/02/16 06:39:32;;;;;;;;;;;16.10;35.30;;;;;;8331149;28;20297;-54
2022/02/16 06:43:33;;;;;;;;;;;16.10;35.30;;;;;;8329307;28;19925;-52
2022/02/16 06:47:34;;;;;;;;;;;16.10;35.30;;;;;;8329097;28;20345;-53
2022/02/16 06:51:34;;;;;;;;;;;16.10;35.30;;;;;;8329208;28;19936;-53
2022/02/16 06:55:34;;;;;;;;;;;16.10;35.40;;;;;;8328484;28;19936;-51
2022/02/16 06:59:35;;;;;;;;;;;16.10;35.40;;;;;;8328743;28;19944;-55
2022/02/16 07:03:35;;;;;;;;;;;16.10;35.40;;;;;;8328997;28;20031;-53
2022/02/16 07:07:36;;;;;;;;;;;16.10;35.40;;;;;;8328663;28;19924;-50
2022/02/16 07:11:36;;;;;;;;;;;16.10;35.40;;;;;;8328625;28;19917;-53
2022/02/16 07:15:37;;;;;;;;;;;16.10;35.40;;;;;;8328714;28;19917;-52
2022/02/16 07:19:37;;;;;;;;;;;16.10;35.40;;;;;;8327905;28;19932;-52
2022/02/16 07:23:38;;;;;;;;;;;16.10;35.40;;;;;;8328361;28;20090;-51
2022/02/16 07:27:38;;;;;;;;;;;16.10;35.40;;;;;;8328610;28;19925;-53
2022/02/16 07:31:39;;;;;;;;;;;16.10;35.40;;;;;;8327689;28;20238;-52
2022/02/16 07:35:39;;;;;;;;;;;16.10;35.50;;;;;;8328178;28;20420;-54
2022/02/16 07:39:39;;;;;;;;;;;16.10;35.50;;;;;;8327945;28;19936;-51
2022/02/16 07:43:40;;;;;;;;;;;16.10;35.50;;;;;;8327326;28;19917;-50
2022/02/16 07:47:40;;;;;;;;;;;16.10;35.50;;;;;;8328416;28;20059;-51
2022/02/16 07:51:41;;;;;;;;;;;16.10;35.50;;;;;;8327801;28;19917;-53
2022/02/16 07:55:42;;;;;;;;;;;16.10;35.50;;;;;;8327522;28;20446;-52
2022/02/16 07:59:42;;;;;;;;;;;16.10;35.50;;;;;;8329729;28;19925;-51
2022/02/16 08:03:43;;;;;;;;;;;16.10;35.60;;;;;;8334144;28;19916;-50
2022/02/16 08:07:44;;;;;;;;;;;16.10;36.10;;;;;;8318463;28;19924;-51
2022/02/16 08:11:45;;;;;;;;;;;16.10;35.60;;;;;;8325204;28;19921;-53
2022/02/16 08:15:46;;;;;;;;;;;16.10;35.60;;;;;;8333694;28;20047;-51
2022/02/16 08:19:46;;;;;;;;;;;16.10;35.60;;;;;;8333017;28;19925;-50
2022/02/16 08:23:47;;;;;;;;;;;16.10;35.60;;;;;;8333938;28;19924;-50
2022/02/16 08:27:47;;;;;;;;;;;16.10;35.60;;;;;;8333603;28;19921;-54
2022/02/16 08:31:48;;;;;;;;;;;16.10;35.60;;;;;;8332871;28;19929;-52
2022/02/16 08:35:48;;;;;;;;;;;16.10;35.60;;;;;;8333513;28;19921;-52
2022/02/16 08:39:49;;;;;;;;;;;16.10;35.60;;;;;;8332903;28;19925;-50
2022/02/16 08:43:49;;;;;;;;;;;16.10;35.60;;;;;;8332933;28;20332;-49
2022/02/16 08:47:50;;;;;;;;;;;16.10;35.70;;;;;;8332861;28;20316;-51
2022/02/16 08:51:51;;;;;;;;;;;16.10;35.70;;;;;;8332506;28;20020;-54
2022/02/16 08:55:52;;;;;;;;;;;16.20;35.70;;;;;;8332216;28;19968;-53
2022/02/16 08:59:53;;;;;;;;;;;16.10;35.70;;;;;;8332414;28;20005;-52
2022/02/16 09:03:53;;;;;;;;;;;16.10;35.70;;;;;;8332608;28;19944;-52
2022/02/16 09:07:54;;;;;;;;;;;16.20;35.80;;;;;;8331849;28;19936;-56
2022/02/16 09:11:54;;;;;;;;;;;16.20;35.80;;;;;;8331371;28;19921;-52
2022/02/16 09:15:56;;;;;;;;;;;16.20;35.80;;;;;;8332258;28;20365;-54
2022/02/16 09:19:56;;;;;;;;;;;16.20;35.80;;;;;;8331234;28;19928;-52
2022/02/16 09:23:58;;;;;;;;;;;16.20;35.80;;;;;;8332120;28;19917;-49
2022/02/16 09:27:58;;;;;;;;;;;16.20;35.80;;;;;;8331357;28;20361;-51
2022/02/16 09:31:59;;;;;;;;;;;16.20;35.80;;;;;;8331041;28;19917;-53
2022/02/16 09:35:59;;;;;;;;;;;16.20;35.80;;;;;;8331368;28;19917;-50
2022/02/16 09:40:00;;;;;;;;;;;16.20;35.90;;;;;;8331039;28;19932;-53
2022/02/16 09:44:01;;;;;;;;;;;16.20;35.80;;;;;;8330866;28;20384;-51
2022/02/16 09:48:03;;;;;;;;;;;16.20;35.90;;;;;;8331025;28;19960;-53
2022/02/16 09:52:05;;;;;;;;;;;16.20;35.90;;;;;;8330979;28;19928;-50
2022/02/16 09:56:05;;;;;;;;;;;16.20;35.90;;;;;;8330443;28;19921;-52
2022/02/16 10:00:07;;;;;;;;;;;16.20;35.90;;;;;;8331405;28;19932;-54
2022/02/16 10:04:10;;;;;;;;;;;16.30;35.90;;;;;;8332453;28;19923;-55
2022/02/16 10:08:10;;;;;;;;;;;16.30;35.90;;;;;;8331518;28;20007;-55
2022/02/16 10:12:10;;;;;;;;;;;16.30;35.90;;;;;;8332249;28;19921;-52
2022/02/16 10:16:11;;;;;;;;;;;16.30;35.90;;;;;;8331784;28;20059;-54
2022/02/16 10:20:13;;;;;;;;;;;16.30;35.90;;;;;;8330975;28;19929;-54
2022/02/16 10:24:20;;;;;;;;;;;16.30;35.90;;;;;;8329395;28;19925;-52
2022/02/16 10:28:21;;;;;;;;;;;16.30;35.90;;;;;;8331069;28;19924;-55
2022/02/16 10:32:25;;;;;;;;;;;16.30;35.90;;;;;;8331313;28;19924;-55
2022/02/16 10:36:29;;;;;;;;;;;16.30;36.00;;;;;;8331067;28;20050;-53
2022/02/16 10:40:29;;;;;;;;;;;16.40;36.00;;;;;;8330670;28;19925;-53
2022/02/16 10:44:31;;;;;;;;;;;16.40;36.00;;;;;;8331423;28;20387;-54
2022/02/16 10:48:31;;;;;;;;;;;16.40;36.00;;;;;;8331108;28;20432;-53
2022/02/16 10:52:33;;;;;;;;;;;16.40;36.00;;;;;;8330415;28;19921;-52
2022/02/16 10:56:33;;;;;;;;;;;16.40;36.00;;;;;;8330887;28;19923;-55
2022/02/16 11:00:34;;;;;;;;;;;16.40;36.00;;;;;;8330551;28;19933;-52
2022/02/16 11:04:36;;;;;;;;;;;16.40;36.00;;;;;;8330225;28;19968;-51
2022/02/16 11:08:37;;;;;;;;;;;16.40;36.00;;;;;;8324268;28;19918;-54
2022/02/16 11:12:38;;;;;;;;;;;16.40;36.00;;;;;;8319486;28;19918;-54
2022/02/16 11:16:38;;;;;;;;;;;16.40;36.10;;;;;;8329848;28;19917;-54
2022/02/16 11:20:39;;;;;;;;;;;16.40;36.10;;;;;;8329962;28;19952;-55
2022/02/16 11:24:41;;;;;;;;;;;16.40;36.10;;;;;;8330425;28;19924;-55
2022/02/16 11:28:41;;;;;;;;;;;16.40;36.10;;;;;;8329717;28;19917;-55
2022/02/16 11:32:42;;;;;;;;;;;16.40;36.10;;;;;;8330145;28;19924;-51
2022/02/16 11:36:54;;;;;;;;;;;16.40;36.10;;;;;;8335828;28;19917;-53
2022/02/16 11:40:56;;;;;;;;;;;16.40;36.10;;;;;;8336007;28;20028;-54
2022/02/16 11:44:57;;;;;;;;;;;16.40;36.20;;;;;;8336593;28;19917;-53
2022/02/16 11:48:59;;;;;;;;;;;16.40;36.20;;;;;;8336261;28;20000;-55
2022/02/16 11:53:00;;;;;;;;;;;16.50;36.20;;;;;;8335749;28;20389;-54
2022/02/16 11:57:20;;;;;;;;;;;16.40;36.20;;;;;;8335976;28;20305;-53
2022/02/16 12:01:20;;;;;;;;;;;16.50;36.20;;;;;;8335236;28;19925;-55
2022/02/16 12:05:39;;;;;;;;;;;16.50;36.20;;;;;;8335858;28;19917;-53
2022/02/16 12:09:40;;;;;;;;;;;16.50;36.20;;;;;;8303175;28;19963;-52
2022/02/16 12:13:46;;;;;;;;;;;16.50;36.30;;;;;;8329344;28;19917;-55
2022/02/16 12:17:47;;;;;;;;;;;16.50;36.30;;;;;;8335318;28;20035;-53
2022/02/16 12:21:53;;;;;;;;;;;16.50;36.30;;;;;;8334995;28;20282;-54
2022/02/16 12:26:01;;;;;;;;;;;16.50;36.30;;;;;;8334856;28;20366;-51
2022/02/16 12:30:02;;;;;;;;;;;16.50;36.30;;;;;;8335122;28;20052;-54
2022/02/16 12:34:07;;;;;;;;;;;16.50;36.30;;;;;;8334785;28;20316;-53
2022/02/16 12:38:08;;;;;;;;;;;16.50;36.30;;;;;;8334251;28;19921;-55
2022/02/16 12:42:10;;;;;;;;;;;16.50;36.30;;;;;;8334471;28;19925;-55
2022/02/16 12:46:10;;;;;;;;;;;16.50;36.30;;;;;;8333499;28;19971;-54
2022/02/16 12:50:11;;;;;;;;;;;16.50;36.30;;;;;;8333972;28;19921;-54
2022/02/16 12:54:13;;;;;;;;;;;16.50;36.40;;;;;;8333985;28;20263;-53
2022/02/16 12:58:15;;;;;;;;;;;16.50;36.40;;;;;;8334047;28;19917;-53
2022/02/16 13:02:20;;;;;;;;;;;16.50;36.40;;;;;;8338651;28;20309;-53
2022/02/16 13:06:22;;;;;;;;;;;16.50;36.40;;;;;;8333841;28;20374;-55
2022/02/16 13:10:23;;;;;;;;;;;16.60;36.50;;;;;;8333386;28;20000;-53
2022/02/16 13:14:27;;;;;;;;;;;16.50;36.50;;;;;;8333439;28;19917;-52
2022/02/16 13:18:32;;;;;;;;;;;16.60;36.50;;;;;;8333431;28;19917;-51
2022/02/16 13:22:32;;;;;;;;;;;16.50;36.50;;;;;;8332891;28;19925;-54
2022/02/16 13:26:40;;;;;;;;;;;16.60;36.60;;;;;;8333032;28;20016;-53
2022/02/16 13:30:41;;;;;;;;;;;16.50;36.50;;;;;;8333279;28;19940;-51
2022/02/16 13:34:48;;;;;;;;;;;16.50;36.50;;;;;;8332326;28;19917;-52
2022/02/16 13:38:52;;;;;;;;;;;16.60;36.60;;;;;;8332865;28;20306;-54
2022/02/16 13:43:03;;;;;;;;;;;16.50;36.50;;;;;;8332761;28;19983;-55
2022/02/16 13:47:06;;;;;;;;;;;16.60;36.60;;;;;;8331926;28;19994;-55
2022/02/16 13:51:11;;;;;;;;;;;16.50;36.60;;;;;;8332020;28;19913;-53
2022/02/16 13:55:11;;;;;;;;;;;16.60;36.70;;;;;;8332344;28;19966;-51
2022/02/16 13:59:12;;;;;;;;;;;16.60;36.70;;;;;;8331284;28;19917;-51
2022/02/16 14:03:14;;;;;;;;;;;16.60;36.70;;;;;;8320903;28;20006;-52
2022/02/16 14:07:15;;;;;;;;;;;16.60;36.70;;;;;;8307541;28;19971;-53
2022/02/16 14:11:18;;;;;;;;;;;16.60;36.80;;;;;;8330865;28;22291;-54
2022/02/16 14:15:19;;;;;;;;;;;16.60;36.80;;;;;;8331639;28;20393;-51
2022/02/16 14:19:22;;;;;;;;;;;16.60;36.80;;;;;;8330961;28;19918;-54
2022/02/16 14:23:23;;;;;;;;;;;16.60;36.80;;;;;;8331620;28;19917;-54
2022/02/16 14:27:23;;;;;;;;;;;16.60;36.90;;;;;;8331237;28;19918;-54
2022/02/16 14:31:24;;;;;;;;;;;16.60;36.90;;;;;;8330583;28;19917;-52
2022/02/16 14:35:24;;;;;;;;;;;16.60;36.90;;;;;;8331057;28;20382;-55
2022/02/16 14:39:25;;;;;;;;;;;16.60;36.90;;;;;;8330709;28;20386;-55
2022/02/16 14:43:25;;;;;;;;;;;16.60;36.90;;;;;;8330119;28;19924;-54
2022/02/16 14:47:27;;;;;;;;;;;16.60;37.00;;;;;;8331013;28;19917;-53
2022/02/16 14:51:29;;;;;;;;;;;16.60;37.00;;;;;;8330990;28;19956;-54
2022/02/16 14:55:31;;;;;;;;;;;16.60;37.00;;;;;;8330305;28;19921;-54
2022/02/16 14:59:31;;;;;;;;;;;16.60;37.00;;;;;;8330395;28;19921;-53
2022/02/16 15:03:32;;;;;;;;;;;16.60;37.00;;;;;;8330320;28;19968;-52
2022/02/16 15:07:32;;;;;;;;;;;16.60;37.00;;;;;;8329928;28;19924;-54
2022/02/16 15:11:33;;;;;;;;;;;16.60;37.00;;;;;;8330068;28;19970;-54
2022/02/16 15:15:33;;;;;;;;;;;16.60;37.00;;;;;;8330270;28;20002;-52
2022/02/16 15:19:36;;;;;;;;;;;16.60;37.00;;;;;;8329507;28;19932;-55
2022/02/16 15:23:36;;;;;;;;;;;16.60;37.10;;;;;;8329912;28;19917;-54
2022/02/16 15:27:37;;;;;;;;;;;16.60;37.10;;;;;;8330110;28;20297;-52
2022/02/16 15:31:38;;;;;;;;;;;16.60;37.10;;;;;;8329747;28;19971;-53
2022/02/16 15:35:39;;;;;;;;;;;16.60;37.10;;;;;;8329801;28;19917;-54
2022/02/16 15:39:40;;;;;;;;;;;16.60;37.10;;;;;;8329602;28;19925;-53
2022/02/16 15:43:41;;;;;;;;;;;16.70;37.20;;;;;;8329266;28;19924;-53
2022/02/16 15:47:42;;;;;;;;;;;16.60;37.10;;;;;;8329605;28;20405;-50
2022/02/16 15:51:43;;;;;;;;;;;16.70;37.20;;;;;;8328502;28;19917;-53
2022/02/16 15:55:43;;;;;;;;;;;16.60;37.10;;;;;;8329064;28;20111;-51
2022/02/16 15:59:43;;;;;;;;;;;16.60;37.20;;;;;;8329416;28;19925;-54
2022/02/16 16:03:45;;;;;;;;;;;16.70;37.20;;;;;;8329311;28;19924;-53
2022/02/16 16:07:46;;;;;;;;;;;16.70;37.30;;;;;;8328986;28;19924;-55
2022/02/16 16:11:46;;;;;;;;;;;16.70;37.30;;;;;;8329568;28;19925;-53
2022/02/16 16:15:47;;;;;;;;;;;16.70;37.30;;;;;;8329206;28;19917;-53
2022/02/16 16:19:47;;;;;;;;;;;16.70;37.30;;;;;;8329051;28;20008;-53
2022/02/16 16:23:48;;;;;;;;;;;16.70;37.90;;;;;;8335141;28;19921;-55
2022/02/16 16:27:48;;;;;;;;;;;16.70;37.40;;;;;;8335141;28;19975;-54
2022/02/16 16:31:49;;;;;;;;;;;16.70;37.40;;;;;;8334709;28;19914;-51
2022/02/16 16:35:49;;;;;;;;;;;16.70;37.40;;;;;;8335084;28;19921;-52
2022/02/16 16:39:50;;;;;;;;;;;16.70;37.50;;;;;;8334730;28;19925;-54
2022/02/16 16:43:50;;;;;;;;;;;16.70;37.50;;;;;;8334067;28;19917;-53
2022/02/16 16:47:51;;;;;;;;;;;16.70;37.50;;;;;;8334488;28;20282;-55
2022/02/16 16:51:51;;;;;;;;;;;16.70;37.50;;;;;;8334391;28;20319;-52
2022/02/16 16:55:52;;;;;;;;;;;16.70;37.60;;;;;;8333872;28;19924;-54
2022/02/16 16:59:52;;;;;;;;;;;16.70;37.60;;;;;;8334426;28;19929;-52
2022/02/16 17:03:53;;;;;;;;;;;16.70;37.60;;;;;;8333471;28;20004;-56
2022/02/16 17:07:54;;;;;;;;;;;16.70;37.60;;;;;;8332357;28;20329;-52
2022/02/16 17:11:55;;;;;;;;;;;16.70;37.60;;;;;;8334310;28;20386;-52
2022/02/16 17:15:55;;;;;;;;;;;16.70;37.60;;;;;;8333617;28;19921;-52
2022/02/16 17:19:56;;;;;;;;;;;16.70;37.60;;;;;;8333024;28;20376;-53
2022/02/16 17:23:56;;;;;;;;;;;16.70;37.70;;;;;;8333352;28;19917;-53
2022/02/16 17:27:57;;;;;;;;;;;16.70;37.70;;;;;;8333323;28;19917;-52
2022/02/16 17:31:57;;;;;;;;;;;16.70;37.70;;;;;;8332390;28;19944;-52
2022/02/16 17:35:58;;;;;;;;;;;16.70;37.70;;;;;;8332844;28;20004;-53
2022/02/16 17:39:58;;;;;;;;;;;16.70;37.70;;;;;;8332929;28;19933;-53
2022/02/16 17:48:19;;;;;;;;;;;16.70;37.80;;;;;;8336247;28;19969;-51
2022/02/16 17:52:20;;;;;;;;;;;16.70;37.80;;;;;;8332501;28;19925;-53
2022/02/16 17:56:20;;;;;;;;;;;16.70;37.80;;;;;;8332499;28;20410;-54
2022/02/16 18:00:22;;;;;;;;;;;16.70;37.80;;;;;;8332009;28;19932;-54
2022/02/16 18:04:23;;;;;;;;;;;16.70;37.80;;;;;;8331573;28;19917;-54
2022/02/16 18:08:26;;;;;;;;;;;16.70;37.80;;;;;;8332164;28;20357;-54
2022/02/16 18:12:26;;;;;;;;;;;16.70;37.80;;;;;;8331956;28;20066;-51
2022/02/16 18:16:30;;;;;;;;;;;16.70;37.80;;;;;;8331122;28;19917;-53
2022/02/16 18:20:30;;;;;;;;;;;16.70;37.80;;;;;;8331280;28;19925;-52
2022/02/16 18:24:31;;;;;;;;;;;16.70;37.80;;;;;;8331383;28;20472;-54
2022/02/16 18:28:32;;;;;;;;;;;16.70;37.80;;;;;;8330925;28;19990;-54
2022/02/16 18:32:32;;;;;;;;;;;16.70;37.80;;;;;;8331794;28;20067;-54
2022/02/16 18:36:33;;;;;;;;;;;16.70;37.80;;;;;;8330996;28;19924;-52
2022/02/16 18:40:33;;;;;;;;;;;16.70;37.90;;;;;;8330521;28;19932;-52
2022/02/16 18:44:34;;;;;;;;;;;16.70;37.90;;;;;;8329906;28;19963;-52
2022/02/16 18:48:34;;;;;;;;;;;16.70;37.90;;;;;;8330780;28;20416;-52
2022/02/16 18:52:35;;;;;;;;;;;16.70;37.90;;;;;;8330500;28;20449;-53
2022/02/16 18:56:35;;;;;;;;;;;16.70;37.90;;;;;;8330883;28;19928;-53
2022/02/16 19:00:36;;;;;;;;;;;16.80;38.00;;;;;;8330514;28;19925;-53
2022/02/16 19:04:36;;;;;;;;;;;16.80;38.00;;;;;;8330048;28;19940;-54
2022/02/16 19:08:39;;;;;;;;;;;16.80;38.00;;;;;;8330526;28;20420;-55
2022/02/16 19:12:39;;;;;;;;;;;16.80;38.00;;;;;;8330411;28;19917;-51
2022/02/16 19:16:40;;;;;;;;;;;16.80;38.00;;;;;;8329810;28;20278;-53
2022/02/16 19:20:41;;;;;;;;;;;16.80;37.90;;;;;;8330036;28;20028;-55
2022/02/16 19:24:41;;;;;;;;;;;16.80;38.00;;;;;;8330222;28;19924;-53
2022/02/16 19:28:42;;;;;;;;;;;16.80;38.00;;;;;;8329531;28;19917;-54
2022/02/16 19:32:45;;;;;;;;;;;16.80;38.00;;;;;;8330102;28;19917;-54
2022/02/16 19:36:45;;;;;;;;;;;16.80;38.00;;;;;;8330024;28;19917;-54
2022/02/16 19:40:45;;;;;;;;;;;16.80;38.00;;;;;;8329253;28;19933;-52
2022/02/16 19:44:46;;;;;;;;;;;16.80;38.00;;;;;;8329658;28;19917;-53
2022/02/16 19:48:46;;;;;;;;;;;16.80;38.00;;;;;;8329751;28;20298;-54
2022/02/16 19:52:47;;;;;;;;;;;16.80;38.50;;;;;;8329393;28;19921;-51
2022/02/16 19:56:50;;;;;;;;;;;16.80;38.00;;;;;;8333545;28;19921;-52
2022/02/16 20:00:51;;;;;;;;;;;16.80;38.00;;;;;;8335914;28;20052;-53
2022/02/16 20:04:51;;;;;;;;;;;16.80;38.00;;;;;;8335320;28;20386;-52
2022/02/16 20:08:52;;;;;;;;;;;16.80;38.10;;;;;;8305126;28;19914;-50
2022/02/16 20:12:52;;;;;;;;;;;16.80;38.00;;;;;;8335830;28;19922;-53
2022/02/16 20:16:53;;;;;;;;;;;16.80;38.10;;;;;;8335082;28;20409;-54
2022/02/16 20:20:53;;;;;;;;;;;16.80;38.10;;;;;;8335211;28;19936;-53
2022/02/16 20:24:54;;;;;;;;;;;16.80;38.10;;;;;;8335130;28;19917;-53
2022/02/16 20:28:54;;;;;;;;;;;16.80;38.10;;;;;;8334564;28;20294;-49
2022/02/16 20:32:55;;;;;;;;;;;16.80;38.10;;;;;;8335202;28;19917;-51
2022/02/16 20:36:55;;;;;;;;;;;16.80;38.20;;;;;;8334967;28;19924;-54
2022/02/16 20:40:56;;;;;;;;;;;16.80;38.20;;;;;;8334148;28;20433;-53
2022/02/16 20:44:56;;;;;;;;;;;16.80;38.10;;;;;;8334822;28;19918;-54
2022/02/16 20:48:57;;;;;;;;;;;16.80;38.10;;;;;;8334704;28;19992;-52
2022/02/16 20:52:57;;;;;;;;;;;16.80;38.10;;;;;;8334337;28;19928;-54
2022/02/16 20:56:58;;;;;;;;;;;16.80;38.10;;;;;;8334194;28;20003;-54
2022/02/16 21:00:58;;;;;;;;;;;16.80;38.10;;;;;;8334109;28;20399;-52
2022/02/16 21:04:58;;;;;;;;;;;16.90;38.20;;;;;;8333517;28;19917;-52
2022/02/16 21:08:59;;;;;;;;;;;16.80;38.20;;;;;;8333232;28;19917;-53
2022/02/16 21:13:00;;;;;;;;;;;16.80;38.20;;;;;;8333899;28;19917;-54
2022/02/16 21:17:01;;;;;;;;;;;16.80;38.20;;;;;;8333876;28;19924;-54
2022/02/16 21:21:02;;;;;;;;;;;16.80;38.20;;;;;;8333628;28;19925;-53
2022/02/16 21:25:03;;;;;;;;;;;16.80;38.20;;;;;;8333587;28;19932;-51
2022/02/16 21:29:03;;;;;;;;;;;16.80;38.20;;;;;;8333120;28;19918;-51
2022/02/16 21:33:04;;;;;;;;;;;16.90;38.30;;;;;;8333217;28;19917;-53
2022/02/16 21:37:05;;;;;;;;;;;16.80;38.20;;;;;;8333174;28;19959;-53
2022/02/16 21:41:05;;;;;;;;;;;16.80;38.20;;;;;;8332259;28;20271;-51
2022/02/16 21:45:06;;;;;;;;;;;16.90;38.20;;;;;;8332731;28;20012;-51
2022/02/16 21:49:06;;;;;;;;;;;16.90;38.20;;;;;;8333000;28;20349;-53
2022/02/16 21:53:07;;;;;;;;;;;16.90;38.30;;;;;;8332275;28;20426;-49
2022/02/16 21:57:08;;;;;;;;;;;16.80;38.20;;;;;;8332404;28;20384;-52
2022/02/16 22:01:08;;;;;;;;;;;16.80;38.20;;;;;;8332298;28;19932;-51
2022/02/16 22:05:09;;;;;;;;;;;16.90;38.30;;;;;;8331593;28;19933;-51
2022/02/16 22:09:09;;;;;;;;;;;16.90;38.30;;;;;;8332125;28;19917;-54
2022/02/16 22:13:10;;;;;;;;;;;16.90;38.30;;;;;;8332284;28;20374;-50
2022/02/16 22:17:11;;;;;;;;;;;16.90;38.30;;;;;;8331749;28;19971;-54
2022/02/16 22:21:12;;;;;;;;;;;16.80;38.30;;;;;;8331702;28;19925;-50
2022/02/16 22:25:14;;;;;;;;;;;16.80;38.30;;;;;;8331508;28;19917;-53
2022/02/16 22:29:16;;;;;;;;;;;16.90;38.40;;;;;;8331188;28;19924;-52
2022/02/16 22:33:18;;;;;;;;;;;16.80;38.30;;;;;;8331577;28;19917;-54
2022/02/16 22:37:18;;;;;;;;;;;16.90;38.40;;;;;;8330960;28;19917;-50
2022/02/16 22:41:19;;;;;;;;;;;16.80;38.30;;;;;;8331321;28;19966;-53
2022/02/16 22:45:20;;;;;;;;;;;16.80;38.30;;;;;;8331065;28;20003;-52
2022/02/16 22:49:20;;;;;;;;;;;16.80;38.30;;;;;;8330536;28;19923;-52
2022/02/16 22:53:21;;;;;;;;;;;16.80;38.30;;;;;;8330701;28;19976;-53
2022/02/16 22:57:21;;;;;;;;;;;16.80;38.40;;;;;;8330681;28;19995;-52
2022/02/16 23:01:23;;;;;;;;;;;16.80;38.40;;;;;;8329305;28;19968;-53
2022/02/16 23:14:01;;;;;;;;;;;16.80;38.50;;;;;;8330873;28;19979;-49
2022/02/16 23:18:03;;;;;;;;;;;16.80;38.50;;;;;;8330428;28;19918;-52
2022/02/16 23:22:04;;;;;;;;;;;16.90;38.50;;;;;;8330215;28;19925;-52
2022/02/16 23:26:05;;;;;;;;;;;16.90;38.50;;;;;;8329658;28;19943;-51
2022/02/16 23:30:07;;;;;;;;;;;16.80;38.50;;;;;;8331289;28;19924;-52
2022/02/16 23:34:07;;;;;;;;;;;16.90;38.50;;;;;;8337166;28;20353;-50